Carrickmacross, Ireland
Current Conditions -  °F | °C
As of 6:30 AM on Wednesday 26 Nov 2014 (Local Time) from EIDW Reporting Station
Haze Haze  
Wind Chill: 36°   Ceiling: Unl
Heat Index: 36°   Visibility: 0.75mi
Dew Point: 36°   Wind: 2mph
Humidity: 100%   Direction: 280°W
Pressure: 29.97"   Gusts: NA
Location:  53.98°N, 6.74°W
Report Text: EIDW 260630Z 28002KT 1200 R16/0900V1200D R28/0900V1200N R10/0800V1000N BR FEW001 02/02 Q1015 BECMG 0200 BKN001
Loading
Personal Weather Stations






























Interactive Weather Map New forecast layout! Learn more

10-Day Weather Forecast

Advertisements
Track Severe Weather on mobile